createdAt,value
2019-03-11T00:00:39.138Z,5.36
2019-03-11T00:01:39.124Z,5.25
2019-03-11T00:02:39.136Z,5.28
2019-03-11T00:03:39.168Z,5.29
2019-03-11T00:04:39.184Z,5.38
2019-03-11T00:05:39.231Z,5.25
2019-03-11T00:06:39.241Z,5.29
2019-03-11T00:07:39.245Z,5.31
2019-03-11T00:08:39.266Z,5.26
2019-03-11T00:09:39.274Z,5.28
2019-03-11T00:10:39.327Z,5.28
2019-03-11T00:11:39.333Z,5.10
2019-03-11T00:12:39.346Z,5.13
2019-03-11T00:13:39.352Z,5.12
2019-03-11T00:14:39.400Z,5.15
2019-03-11T00:15:39.383Z,5.10
2019-03-11T00:16:39.419Z,5.18
2019-03-11T00:17:39.425Z,5.26
2019-03-11T00:18:39.435Z,5.31
2019-03-11T00:19:39.449Z,5.12
2019-03-11T00:20:39.632Z,5.15
2019-03-11T00:21:39.501Z,5.29
2019-03-11T00:22:39.517Z,5.18
2019-03-11T00:23:39.545Z,5.08
2019-03-11T00:24:39.553Z,5.16
2019-03-11T00:25:39.583Z,5.15
2019-03-11T00:26:39.591Z,5.05
2019-03-11T00:27:39.601Z,5.20
2019-03-11T00:28:39.648Z,5.04
2019-03-11T00:29:39.664Z,5.19
2019-03-11T00:30:39.656Z,5.20
2019-03-11T00:31:39.702Z,5.16
2019-03-11T00:32:39.731Z,5.00
2019-03-11T00:33:39.734Z,5.10
2019-03-11T00:34:39.750Z,4.95
2019-03-11T00:35:39.753Z,5.16
2019-03-11T00:36:39.802Z,5.22
2019-03-11T00:37:39.812Z,5.15
2019-03-11T00:38:39.804Z,5.02
2019-03-11T00:39:39.826Z,5.07
2019-03-11T00:40:39.862Z,5.02
2019-03-11T00:41:39.902Z,5.02
2019-03-11T00:42:39.942Z,5.02
2019-03-11T00:43:39.911Z,5.02
2019-03-11T00:44:39.913Z,5.02
2019-03-11T00:45:39.937Z,5.16
2019-03-11T00:46:39.971Z,5.18
2019-03-11T00:47:39.988Z,5.19
2019-03-11T00:48:40.019Z,5.23
2019-03-11T00:49:40.030Z,5.05
2019-03-11T00:50:40.097Z,5.05
2019-03-11T00:51:40.103Z,5.12
2019-03-11T00:52:40.125Z,5.12
2019-03-11T00:53:40.083Z,5.05
2019-03-11T00:54:40.134Z,5.13
2019-03-11T00:55:40.170Z,5.20
2019-03-11T00:56:40.144Z,5.22
2019-03-11T00:57:40.212Z,5.10
2019-03-11T00:58:40.182Z,5.08
2019-03-11T00:59:40.262Z,5.05
2019-03-11T01:00:40.224Z,5.07
2019-03-11T01:01:40.280Z,4.98
2019-03-11T01:02:40.255Z,5.10
2019-03-11T01:03:40.265Z,5.08
2019-03-11T01:04:40.304Z,5.00
2019-03-11T01:05:40.315Z,4.95
2019-03-11T01:06:40.348Z,4.97
2019-03-11T01:07:40.342Z,4.97
2019-03-11T01:08:40.420Z,4.97
2019-03-11T01:09:40.431Z,4.98
2019-03-11T01:10:40.397Z,4.95
2019-03-11T01:11:40.421Z,4.97
2019-03-11T01:12:40.456Z,4.92
2019-03-11T01:13:40.463Z,5.01
2019-03-11T01:14:40.505Z,5.05
2019-03-11T01:15:40.509Z,5.02
2019-03-11T01:16:40.587Z,4.98
2019-03-11T01:17:40.535Z,5.10
2019-03-11T01:18:40.551Z,5.05
2019-03-11T01:19:40.563Z,4.97
2019-03-11T01:20:40.610Z,5.08
2019-03-11T01:21:40.633Z,5.05
2019-03-11T01:22:40.632Z,5.10
2019-03-11T01:23:40.661Z,5.05
2019-03-11T01:24:40.693Z,5.01
2019-03-11T01:25:40.700Z,5.01
2019-03-11T01:26:40.710Z,5.01
2019-03-11T01:27:40.718Z,5.00
2019-03-11T01:28:40.777Z,5.10
2019-03-11T01:29:40.774Z,5.22
2019-03-11T01:30:40.780Z,5.10
2019-03-11T01:31:40.808Z,5.05
2019-03-11T01:32:40.815Z,5.05
2019-03-11T01:33:40.820Z,5.02
2019-03-11T01:34:40.833Z,4.97
2019-03-11T01:35:40.857Z,5.02
2019-03-11T01:36:40.871Z,5.10
2019-03-11T01:37:40.892Z,5.02
2019-03-11T01:38:40.913Z,4.98
2019-03-11T01:39:40.992Z,5.00
2019-03-11T01:40:40.943Z,4.98
2019-03-11T01:41:40.965Z,4.97
2019-03-11T01:42:40.981Z,4.97
2019-03-11T01:43:41.000Z,4.92
2019-03-11T01:44:41.021Z,5.01
2019-03-11T01:45:41.041Z,4.98
2019-03-11T01:46:41.054Z,4.97
2019-03-11T01:47:41.075Z,4.98
2019-03-11T01:48:41.093Z,5.04
2019-03-11T01:49:41.110Z,5.00
2019-03-11T01:50:41.133Z,5.04
2019-03-11T01:51:41.155Z,4.98
2019-03-11T01:52:41.166Z,5.00
2019-03-11T01:53:41.190Z,5.02
2019-03-11T01:54:41.215Z,5.05
2019-03-11T01:55:41.218Z,4.97
2019-03-11T01:56:41.250Z,5.04
2019-03-11T01:57:41.262Z,4.94
2019-03-11T01:58:41.278Z,5.00
2019-03-11T01:59:41.296Z,5.00
2019-03-11T02:00:41.323Z,4.98
2019-03-11T02:01:41.326Z,4.98
2019-03-11T02:02:41.357Z,5.02
2019-03-11T02:03:41.362Z,4.97
2019-03-11T02:04:41.402Z,5.04
2019-03-11T02:05:41.402Z,5.05
2019-03-11T02:06:41.435Z,5.01
2019-03-11T02:07:41.444Z,5.08
2019-03-11T02:08:41.459Z,5.05
2019-03-11T02:09:41.478Z,5.08
2019-03-11T02:10:41.496Z,5.08
2019-03-11T02:11:41.514Z,5.12
2019-03-11T02:12:41.531Z,5.12
2019-03-11T02:13:41.551Z,5.05
2019-03-11T02:14:41.571Z,5.05
2019-03-11T02:15:41.585Z,5.12
2019-03-11T02:16:41.605Z,5.02
2019-03-11T02:17:41.618Z,5.01
2019-03-11T02:18:41.641Z,5.15
2019-03-11T02:19:41.658Z,5.15
2019-03-11T02:20:41.738Z,5.10
2019-03-11T02:21:41.695Z,5.08
2019-03-11T02:22:41.716Z,5.12
2019-03-11T02:23:41.733Z,5.02
2019-03-11T02:24:41.754Z,5.08
2019-03-11T02:25:41.774Z,5.05
2019-03-11T02:26:41.790Z,5.15
2019-03-11T02:27:41.803Z,5.19
2019-03-11T02:28:41.836Z,5.18
2019-03-11T02:29:41.845Z,5.20
2019-03-11T02:30:41.863Z,5.10
2019-03-11T02:31:41.879Z,5.00
2019-03-11T02:32:41.907Z,5.07
2019-03-11T02:33:41.921Z,5.16
2019-03-11T02:34:41.939Z,5.12
2019-03-11T02:35:41.957Z,5.12
2019-03-11T02:36:41.973Z,5.08
2019-03-11T02:37:41.996Z,5.22
2019-03-11T02:38:42.012Z,5.07
2019-03-11T02:39:42.032Z,5.15
2019-03-11T02:40:42.044Z,5.18
2019-03-11T02:41:42.064Z,5.22
2019-03-11T02:42:42.084Z,5.18
2019-03-11T02:43:42.104Z,5.16
2019-03-11T02:44:42.119Z,5.18
2019-03-11T02:45:42.134Z,5.20
2019-03-11T02:46:42.161Z,5.18
2019-03-11T02:47:42.181Z,5.08
2019-03-11T02:48:42.214Z,5.08
2019-03-11T02:49:43.973Z,5.08
2019-03-11T02:50:42.230Z,4.97
2019-03-11T02:51:42.269Z,4.97
2019-03-11T02:52:42.279Z,4.89
2019-03-11T02:53:42.284Z,4.89
2019-03-11T02:54:42.307Z,4.86
2019-03-11T02:55:42.329Z,4.83
2019-03-11T02:56:42.347Z,4.87
2019-03-11T02:57:42.366Z,4.86
2019-03-11T02:58:42.379Z,4.89
2019-03-11T02:59:42.400Z,4.89
2019-03-11T03:00:42.518Z,4.89
2019-03-11T03:01:42.436Z,4.86
2019-03-11T03:02:42.454Z,4.90
2019-03-11T03:03:42.500Z,4.86
2019-03-11T03:04:42.492Z,4.86
2019-03-11T03:05:42.515Z,4.84
2019-03-11T03:06:42.525Z,4.84
2019-03-11T03:07:42.551Z,4.82
2019-03-11T03:08:42.563Z,4.70
2019-03-11T03:09:42.588Z,4.74
2019-03-11T03:10:42.611Z,4.82
2019-03-11T03:11:42.616Z,4.79
2019-03-11T03:12:42.641Z,4.82
2019-03-11T03:13:42.668Z,4.70
2019-03-11T03:14:42.670Z,4.78
2019-03-11T03:15:42.687Z,4.79
2019-03-11T03:16:42.711Z,4.64
2019-03-11T03:17:42.728Z,4.64
2019-03-11T03:18:42.746Z,4.64
2019-03-11T03:19:42.761Z,4.63
2019-03-11T03:20:42.821Z,4.70
2019-03-11T03:21:42.800Z,4.78
2019-03-11T03:22:42.823Z,4.63
2019-03-11T03:23:42.896Z,4.78
2019-03-11T03:24:42.853Z,4.61
2019-03-11T03:25:42.873Z,4.71
2019-03-11T03:26:42.891Z,4.82
2019-03-11T03:27:42.945Z,4.78
2019-03-11T03:28:42.935Z,4.66
2019-03-11T03:29:42.951Z,4.63
2019-03-11T03:30:42.974Z,4.75
2019-03-11T03:31:42.980Z,4.71
2019-03-11T03:32:43.018Z,4.70
2019-03-11T03:33:43.030Z,4.64
2019-03-11T03:34:43.048Z,4.67
2019-03-11T03:35:43.052Z,4.64
2019-03-11T03:36:43.074Z,4.63
2019-03-11T03:37:43.093Z,4.71
2019-03-11T03:38:43.123Z,4.67
2019-03-11T03:39:43.126Z,4.83
2019-03-11T03:40:43.148Z,4.68
2019-03-11T03:41:43.174Z,4.78
2019-03-11T03:42:43.326Z,4.79
2019-03-11T03:43:43.204Z,4.60
2019-03-11T03:44:43.221Z,4.66
2019-03-11T03:45:43.250Z,4.76
2019-03-11T03:46:43.264Z,4.70
2019-03-11T03:47:43.279Z,4.82
2019-03-11T03:48:43.443Z,4.79
2019-03-11T03:49:43.314Z,4.70
2019-03-11T03:50:43.327Z,4.83
2019-03-11T03:51:43.348Z,4.75
2019-03-11T03:52:43.371Z,4.76
2019-03-11T03:53:43.380Z,4.75
2019-03-11T03:54:43.399Z,4.76
2019-03-11T03:55:43.425Z,4.67
2019-03-11T03:56:43.437Z,4.70
2019-03-11T03:57:43.459Z,4.66
2019-03-11T03:58:43.480Z,4.71
2019-03-11T03:59:43.493Z,4.76
2019-03-11T04:00:43.518Z,4.71
2019-03-11T04:01:43.612Z,4.78
2019-03-11T04:02:43.556Z,4.75
2019-03-11T04:03:43.577Z,4.79
2019-03-11T04:04:43.583Z,4.75
2019-03-11T04:05:43.698Z,4.71
2019-03-11T04:06:43.624Z,4.76
2019-03-11T04:07:43.636Z,4.71
2019-03-11T04:08:43.656Z,4.82
2019-03-11T04:09:43.688Z,4.71
2019-03-11T04:10:43.694Z,4.67
2019-03-11T04:11:43.723Z,4.71
2019-03-11T04:12:43.739Z,4.67
2019-03-11T04:13:43.757Z,4.75
2019-03-11T04:14:43.764Z,4.74
2019-03-11T04:15:43.777Z,4.76
2019-03-11T04:16:43.805Z,4.76
2019-03-11T04:17:43.837Z,4.79
2019-03-11T04:18:43.842Z,4.83
2019-03-11T04:19:43.858Z,4.75
2019-03-11T04:20:43.878Z,4.74
2019-03-11T04:21:43.894Z,4.75
2019-03-11T04:22:43.915Z,4.78
2019-03-11T04:23:43.932Z,4.82
2019-03-11T04:24:43.951Z,4.82
2019-03-11T04:25:43.973Z,4.83
2019-03-11T04:26:43.984Z,4.84
2019-03-11T04:27:43.995Z,4.82
2019-03-11T04:28:44.023Z,4.82
2019-03-11T04:29:44.041Z,4.83
2019-03-11T04:30:44.063Z,4.83
2019-03-11T04:31:44.078Z,4.79
2019-03-11T04:32:44.095Z,4.82
2019-03-11T04:33:44.116Z,4.84
2019-03-11T04:34:44.132Z,4.75
2019-03-11T04:35:44.148Z,4.90
2019-03-11T04:36:44.168Z,4.87
2019-03-11T04:37:44.186Z,4.90
2019-03-11T04:38:44.202Z,4.84
2019-03-11T04:39:44.227Z,4.78
2019-03-11T04:40:44.241Z,4.86
2019-03-11T04:41:44.256Z,4.94
2019-03-11T04:42:44.282Z,4.86
2019-03-11T04:43:44.296Z,4.94
2019-03-11T04:44:44.313Z,4.82
2019-03-11T04:45:44.334Z,4.84
2019-03-11T04:46:44.352Z,4.82
2019-03-11T04:47:44.375Z,4.86
2019-03-11T04:48:44.383Z,4.82
2019-03-11T04:49:44.400Z,4.84
2019-03-11T04:50:44.420Z,4.83
2019-03-11T04:51:44.441Z,4.83
2019-03-11T04:52:44.466Z,4.84
2019-03-11T04:53:44.483Z,4.84
2019-03-11T04:54:44.493Z,4.87
2019-03-11T04:55:44.510Z,4.89
2019-03-11T04:56:44.531Z,4.84
2019-03-11T04:57:44.551Z,4.84
2019-03-11T04:58:44.567Z,4.90
2019-03-11T04:59:44.583Z,4.86
2019-03-11T05:00:44.606Z,4.82
2019-03-11T05:01:44.620Z,4.89
2019-03-11T05:02:44.647Z,4.86
2019-03-11T05:03:46.169Z,5.00
2019-03-11T05:04:44.676Z,4.98
2019-03-11T05:05:44.705Z,4.94
2019-03-11T05:06:44.715Z,4.95
2019-03-11T05:07:44.735Z,4.95
2019-03-11T05:08:44.750Z,4.97
2019-03-11T05:09:44.767Z,4.92
2019-03-11T05:10:44.792Z,4.89
2019-03-11T05:11:44.808Z,4.94
2019-03-11T05:12:44.830Z,4.97
2019-03-11T05:13:44.838Z,4.86
2019-03-11T05:14:44.862Z,4.97
2019-03-11T05:15:44.878Z,5.00
2019-03-11T05:16:44.899Z,4.87
2019-03-11T05:17:44.915Z,5.01
2019-03-11T05:18:44.938Z,4.97
2019-03-11T05:19:44.966Z,4.94
2019-03-11T05:20:44.976Z,4.98
2019-03-11T05:21:44.985Z,5.05
2019-03-11T05:22:45.003Z,4.90
2019-03-11T05:23:45.023Z,5.00
2019-03-11T05:24:45.040Z,4.94
2019-03-11T05:25:45.069Z,4.95
2019-03-11T05:26:45.083Z,5.01
2019-03-11T05:27:45.096Z,5.02
2019-03-11T05:28:45.111Z,5.05
2019-03-11T05:29:45.129Z,5.05
2019-03-11T05:30:45.153Z,5.02
2019-03-11T05:31:45.172Z,5.10
2019-03-11T05:32:45.190Z,5.02
2019-03-11T05:33:45.205Z,5.02
2019-03-11T05:34:45.220Z,5.02
2019-03-11T05:35:45.242Z,5.12
2019-03-11T05:36:45.264Z,5.08
2019-03-11T05:37:45.279Z,5.02
2019-03-11T05:38:45.301Z,5.18
2019-03-11T05:39:45.322Z,5.07
2019-03-11T05:40:45.330Z,5.07
2019-03-11T05:41:45.355Z,5.18
2019-03-11T05:42:45.374Z,5.19
2019-03-11T05:43:45.386Z,5.16
2019-03-11T05:44:45.413Z,5.16
2019-03-11T05:45:45.425Z,5.07
2019-03-11T05:46:45.443Z,5.02
2019-03-11T05:47:45.459Z,5.08
2019-03-11T05:48:45.483Z,5.12
2019-03-11T05:49:45.499Z,5.22
2019-03-11T05:50:45.531Z,5.12
2019-03-11T05:51:45.539Z,5.19
2019-03-11T05:52:45.555Z,5.22
2019-03-11T05:53:45.570Z,5.19
2019-03-11T05:54:45.590Z,5.19
2019-03-11T05:55:45.618Z,5.19
2019-03-11T05:56:45.626Z,5.22
2019-03-11T05:57:45.659Z,5.33
2019-03-11T05:58:45.667Z,5.31
2019-03-11T05:59:45.686Z,5.33
2019-03-11T06:00:45.714Z,5.31
2019-03-11T06:01:45.748Z,5.28
2019-03-11T06:02:45.749Z,5.29
2019-03-11T06:03:45.758Z,5.29
2019-03-11T06:04:45.766Z,5.34
2019-03-11T06:05:45.790Z,5.38
2019-03-11T06:06:45.812Z,5.28
2019-03-11T06:07:45.835Z,5.36
2019-03-11T06:08:45.849Z,5.38
2019-03-11T06:09:45.865Z,5.34
2019-03-11T06:10:45.885Z,5.34
2019-03-11T06:11:45.907Z,5.40
2019-03-11T06:12:45.929Z,5.46
2019-03-11T06:13:45.947Z,5.70
2019-03-11T06:14:45.956Z,5.70
2019-03-11T06:15:45.973Z,5.62
2019-03-11T06:16:46.004Z,6.13
2019-03-11T06:17:46.089Z,5.73
2019-03-11T06:18:46.029Z,5.73
2019-03-11T06:19:46.050Z,5.77
2019-03-11T06:20:46.067Z,5.64
2019-03-11T06:21:46.089Z,5.64
2019-03-11T06:22:46.104Z,5.61
2019-03-11T06:23:46.121Z,5.73
2019-03-11T06:24:46.142Z,5.67
2019-03-11T06:25:46.165Z,5.61
2019-03-11T06:26:46.177Z,5.62
2019-03-11T06:27:46.194Z,5.69
2019-03-11T06:28:46.219Z,5.74
2019-03-11T06:29:46.241Z,5.69
2019-03-11T06:30:46.250Z,5.67
2019-03-11T06:31:46.269Z,5.92
2019-03-11T06:32:46.287Z,5.97
2019-03-11T06:33:46.313Z,5.77
2019-03-11T06:34:46.326Z,5.88
2019-03-11T06:35:46.355Z,5.69
2019-03-11T06:36:46.360Z,5.65
2019-03-11T06:37:46.390Z,5.64
2019-03-11T06:38:46.406Z,5.67
2019-03-11T06:39:46.471Z,5.62
2019-03-11T06:40:46.441Z,5.59
2019-03-11T06:41:46.457Z,5.64
2019-03-11T06:42:46.482Z,5.61
2019-03-11T06:43:46.492Z,5.62
2019-03-11T06:44:46.516Z,5.56
2019-03-11T06:45:46.531Z,5.56
2019-03-11T06:46:46.555Z,5.62
2019-03-11T06:47:46.567Z,5.65
2019-03-11T06:48:46.589Z,5.69
2019-03-11T06:49:46.603Z,5.61
2019-03-11T06:50:46.617Z,5.67
2019-03-11T06:51:46.643Z,5.62
2019-03-11T06:52:46.666Z,5.72
2019-03-11T06:53:46.705Z,5.65
2019-03-11T06:54:46.709Z,5.69
2019-03-11T06:55:46.719Z,5.64
2019-03-11T06:56:46.734Z,5.70
2019-03-11T06:57:46.762Z,5.67
2019-03-11T06:58:46.773Z,5.51
2019-03-11T06:59:46.794Z,5.65
2019-03-11T07:00:46.814Z,5.61
2019-03-11T07:01:46.832Z,5.70
2019-03-11T07:02:46.851Z,5.62
2019-03-11T07:03:46.879Z,5.64
2019-03-11T07:04:46.890Z,5.69
2019-03-11T07:05:46.907Z,5.76
2019-03-11T07:06:46.924Z,5.72
2019-03-11T07:07:46.947Z,5.61
2019-03-11T07:08:46.960Z,5.67
2019-03-11T07:09:46.988Z,5.72
2019-03-11T07:10:46.997Z,5.79
2019-03-11T07:11:47.023Z,5.69
2019-03-11T07:12:47.035Z,5.69
2019-03-11T07:13:47.053Z,5.65
2019-03-11T07:14:47.078Z,5.61
2019-03-11T07:15:47.096Z,5.61
2019-03-11T07:16:47.111Z,5.72
2019-03-11T07:17:47.149Z,5.65
2019-03-11T07:18:47.147Z,5.58
2019-03-11T07:19:47.174Z,5.67
2019-03-11T07:20:47.191Z,5.61
2019-03-11T07:21:47.215Z,5.59
2019-03-11T07:22:47.223Z,5.64
2019-03-11T07:23:47.261Z,5.62
2019-03-11T07:24:47.262Z,5.65
2019-03-11T07:25:47.282Z,5.64
2019-03-11T07:26:47.496Z,5.72
2019-03-11T07:27:47.330Z,5.69
2019-03-11T07:28:47.348Z,5.67
2019-03-11T07:29:47.353Z,5.65
2019-03-11T07:30:47.379Z,5.64
2019-03-11T07:31:47.399Z,5.59
2019-03-11T07:32:47.420Z,5.61
2019-03-11T07:33:47.454Z,5.62
2019-03-11T07:34:47.451Z,5.67
2019-03-11T07:35:47.498Z,5.64
2019-03-11T07:36:47.496Z,5.65
2019-03-11T07:37:47.508Z,5.72
2019-03-11T07:38:47.529Z,5.69
2019-03-11T07:39:47.552Z,5.81
2019-03-11T07:40:47.565Z,5.80
2019-03-11T07:41:47.590Z,5.81
2019-03-11T07:42:47.602Z,5.84
2019-03-11T07:43:47.614Z,5.83
2019-03-11T07:44:47.637Z,5.80
2019-03-11T07:45:47.679Z,5.84
2019-03-11T07:46:47.704Z,5.83
2019-03-11T07:47:47.693Z,5.80
2019-03-11T07:48:47.716Z,5.70
2019-03-11T07:49:47.808Z,5.88
2019-03-11T07:50:47.781Z,5.84
2019-03-11T07:51:47.801Z,5.81
2019-03-11T07:52:47.790Z,5.88
2019-03-11T07:53:47.854Z,5.84
2019-03-11T07:54:47.847Z,5.83
2019-03-11T07:55:47.924Z,5.87
2019-03-11T07:56:47.865Z,5.90
2019-03-11T07:57:47.882Z,5.87
2019-03-11T07:58:47.905Z,5.87
2019-03-11T07:59:47.923Z,5.84
2019-03-11T08:00:53.881Z,5.91
2019-03-11T08:01:47.959Z,5.99
2019-03-11T08:02:47.989Z,5.90
2019-03-11T08:03:47.995Z,5.99
2019-03-11T08:04:48.018Z,5.94
2019-03-11T08:05:48.040Z,5.98
2019-03-11T08:06:48.050Z,5.99
2019-03-11T08:07:48.120Z,5.95
2019-03-11T08:08:48.096Z,5.99
2019-03-11T08:09:48.106Z,6.07
2019-03-11T08:10:48.127Z,5.92
2019-03-11T08:11:48.163Z,5.94
2019-03-11T08:12:48.175Z,5.99
2019-03-11T08:13:48.192Z,5.87
2019-03-11T08:14:48.211Z,5.98
2019-03-11T08:15:48.228Z,5.99
2019-03-11T08:16:48.244Z,5.97
2019-03-11T08:17:48.262Z,5.92
2019-03-11T08:18:48.284Z,5.94
2019-03-11T08:19:48.298Z,6.01
2019-03-11T08:20:48.328Z,6.01
2019-03-11T08:21:48.340Z,5.92
2019-03-11T08:22:48.360Z,5.84
2019-03-11T08:23:48.378Z,5.97
2019-03-11T08:24:48.389Z,5.91
2019-03-11T08:25:48.425Z,5.97
2019-03-11T08:26:48.430Z,5.94
2019-03-11T08:27:48.449Z,5.95
2019-03-11T08:28:48.528Z,5.94
2019-03-11T08:29:48.496Z,5.94
2019-03-11T08:30:48.505Z,5.92
2019-03-11T08:31:48.539Z,5.91
2019-03-11T08:32:48.592Z,5.98
2019-03-11T08:33:48.579Z,6.02
2019-03-11T08:34:48.588Z,6.07
2019-03-11T08:35:48.605Z,5.98
2019-03-11T08:36:48.621Z,5.97
2019-03-11T08:37:48.647Z,5.91
2019-03-11T08:38:48.665Z,5.91
2019-03-11T08:39:48.683Z,5.99
2019-03-11T08:40:48.701Z,6.10
2019-03-11T08:41:48.720Z,6.10
2019-03-11T08:42:48.739Z,6.02
2019-03-11T08:43:48.747Z,5.98
2019-03-11T08:44:48.774Z,5.97
2019-03-11T08:45:48.790Z,6.07
2019-03-11T08:46:48.822Z,6.05
2019-03-11T08:47:48.838Z,6.09
2019-03-11T08:48:48.848Z,5.92
2019-03-11T08:49:48.878Z,6.01
2019-03-11T08:50:48.886Z,5.99
2019-03-11T08:51:48.910Z,6.06
2019-03-11T08:52:48.928Z,6.09
2019-03-11T08:53:48.941Z,5.98
2019-03-11T08:54:48.974Z,5.94
2019-03-11T08:55:48.997Z,5.84
2019-03-11T08:56:48.996Z,5.84
2019-03-11T08:57:49.018Z,5.90
2019-03-11T08:58:49.045Z,5.87
2019-03-11T08:59:49.055Z,5.90
2019-03-11T09:00:49.081Z,5.84
2019-03-11T09:01:49.096Z,5.90
2019-03-11T09:02:49.129Z,5.97
2019-03-11T09:03:49.133Z,5.88
2019-03-11T09:04:49.151Z,5.92
2019-03-11T09:05:49.169Z,6.01
2019-03-11T09:06:49.202Z,5.97
2019-03-11T09:07:49.209Z,6.07
2019-03-11T09:08:49.226Z,6.07
2019-03-11T09:09:49.251Z,6.13
2019-03-11T09:10:49.266Z,6.02
2019-03-11T09:11:49.285Z,6.09
2019-03-11T09:12:49.320Z,5.97
2019-03-11T09:13:49.320Z,5.95
2019-03-11T09:14:49.342Z,6.01
2019-03-11T09:15:49.366Z,6.09
2019-03-11T09:16:49.384Z,6.13
2019-03-11T09:17:49.410Z,6.06
2019-03-11T09:18:49.418Z,5.95
2019-03-11T09:19:49.439Z,6.07
2019-03-11T09:20:49.450Z,6.02
2019-03-11T09:21:49.474Z,6.10
2019-03-11T09:22:49.493Z,6.13
2019-03-11T09:23:49.511Z,6.12
2019-03-11T09:24:49.534Z,6.10
2019-03-11T09:25:49.553Z,6.09
2019-03-11T09:26:49.567Z,6.09
2019-03-11T09:27:50.728Z,6.16
2019-03-11T09:28:49.607Z,6.16
2019-03-11T09:29:49.627Z,6.13
2019-03-11T09:30:49.642Z,6.01
2019-03-11T09:31:49.664Z,6.05
2019-03-11T09:32:49.688Z,6.13
2019-03-11T09:33:49.707Z,6.06
2019-03-11T09:34:49.721Z,6.05
2019-03-11T09:35:49.739Z,6.07
2019-03-11T09:36:49.801Z,6.10
2019-03-11T09:37:49.782Z,6.05
2019-03-11T09:38:49.804Z,6.28
2019-03-11T09:39:49.814Z,6.22
2019-03-11T09:40:49.837Z,6.10
2019-03-11T09:41:49.860Z,6.12
2019-03-11T09:42:49.891Z,6.10
2019-03-11T09:43:50.676Z,6.20
2019-03-11T09:44:49.910Z,6.26
2019-03-11T09:45:49.987Z,6.20
2019-03-11T09:46:49.947Z,6.35
2019-03-11T09:47:49.968Z,6.35
2019-03-11T09:48:49.988Z,6.35
2019-03-11T09:49:50.007Z,6.41
2019-03-11T09:50:50.029Z,6.41
2019-03-11T09:51:50.044Z,6.43
2019-03-11T09:52:50.063Z,6.39
2019-03-11T09:53:50.086Z,6.46
2019-03-11T09:54:50.108Z,6.49
2019-03-11T09:55:50.119Z,6.67
2019-03-11T09:56:50.149Z,6.60
2019-03-11T09:57:50.158Z,6.70
2019-03-11T09:58:50.180Z,6.64
2019-03-11T09:59:50.194Z,6.64
2019-03-11T10:00:50.217Z,6.60
2019-03-11T10:01:50.243Z,6.71
2019-03-11T10:02:52.893Z,6.68
2019-03-11T10:03:50.272Z,6.75
2019-03-11T10:04:50.295Z,6.75
2019-03-11T10:05:50.316Z,6.80
2019-03-11T10:06:50.331Z,6.80
2019-03-11T10:07:50.398Z,6.85
2019-03-11T10:08:50.390Z,6.82
2019-03-11T10:09:50.392Z,6.80
2019-03-11T10:10:50.413Z,6.83
2019-03-11T10:11:50.427Z,6.83
2019-03-11T10:12:50.451Z,6.78
2019-03-11T10:13:50.470Z,6.82
2019-03-11T10:14:50.490Z,6.77
2019-03-11T10:15:50.508Z,6.75
2019-03-11T10:16:50.521Z,6.77
2019-03-11T10:17:50.556Z,6.70
2019-03-11T10:18:50.570Z,6.71
2019-03-11T10:19:50.596Z,6.71
2019-03-11T10:20:50.620Z,6.74
2019-03-11T10:21:50.631Z,6.71
2019-03-11T10:22:50.644Z,6.80
2019-03-11T10:23:50.668Z,6.71
2019-03-11T10:24:50.685Z,6.71
2019-03-11T10:25:50.707Z,6.78
2019-03-11T10:26:50.725Z,6.67
2019-03-11T10:27:50.738Z,6.68
2019-03-11T10:28:50.775Z,6.67
2019-03-11T10:29:50.783Z,6.65
2019-03-11T10:30:50.805Z,6.67
2019-03-11T10:31:50.821Z,6.67
2019-03-11T10:32:50.846Z,6.59
2019-03-11T10:33:50.861Z,6.67
2019-03-11T10:34:50.880Z,6.52
2019-03-11T10:35:50.900Z,6.57
2019-03-11T10:36:50.922Z,6.52
2019-03-11T10:37:50.994Z,6.49
2019-03-11T10:38:50.968Z,6.43
2019-03-11T10:39:50.974Z,6.47
2019-03-11T10:40:50.996Z,6.34
2019-03-11T10:41:51.014Z,6.41
2019-03-11T10:42:51.035Z,6.54
2019-03-11T10:43:51.052Z,6.49
2019-03-11T10:44:51.074Z,6.47
2019-03-11T10:45:51.098Z,6.57
2019-03-11T10:46:51.115Z,6.72
2019-03-11T10:47:51.143Z,6.74
2019-03-11T10:48:51.153Z,6.68
2019-03-11T10:49:51.171Z,6.72
2019-03-11T10:50:51.265Z,6.71
2019-03-11T10:51:51.212Z,6.87
2019-03-11T10:52:51.235Z,6.80
2019-03-11T10:53:51.243Z,6.92
2019-03-11T10:54:51.274Z,6.83
2019-03-11T10:55:51.289Z,6.71
2019-03-11T10:56:51.306Z,6.72
2019-03-11T10:57:51.332Z,6.86
2019-03-11T10:58:51.354Z,6.85
2019-03-11T10:59:51.370Z,6.82
2019-03-11T11:00:51.390Z,7.00
2019-03-11T11:01:51.409Z,6.96
2019-03-11T11:02:51.444Z,6.90
2019-03-11T11:03:51.458Z,6.97
2019-03-11T11:04:51.496Z,6.86
2019-03-11T11:05:51.492Z,6.85
2019-03-11T11:06:51.504Z,6.87
2019-03-11T11:07:51.540Z,6.87
2019-03-11T11:08:51.542Z,6.97
2019-03-11T11:09:51.566Z,7.00
2019-03-11T11:10:51.590Z,6.86
2019-03-11T11:11:51.615Z,6.80
2019-03-11T11:12:51.620Z,6.93
2019-03-11T11:13:51.651Z,6.78
2019-03-11T11:14:51.721Z,6.68
2019-03-11T11:15:51.692Z,6.67
2019-03-11T11:16:51.705Z,6.72
2019-03-11T11:17:51.726Z,6.68
2019-03-11T11:18:51.749Z,6.75
2019-03-11T11:20:02.522Z,6.74
2019-03-11T11:20:51.785Z,6.71
2019-03-11T11:21:51.809Z,6.67
2019-03-11T11:22:51.823Z,6.71
2019-03-11T11:23:51.852Z,6.74
2019-03-11T11:24:51.860Z,6.80
2019-03-11T11:25:51.886Z,6.75
2019-03-11T11:26:51.907Z,6.77
2019-03-11T11:27:51.933Z,6.72
2019-03-11T11:28:51.938Z,6.83
2019-03-11T11:29:51.955Z,6.68
2019-03-11T11:30:51.977Z,6.68
2019-03-11T11:31:51.996Z,6.59
2019-03-11T11:32:52.021Z,6.65
2019-03-11T11:33:52.034Z,6.50
2019-03-11T11:34:52.054Z,6.46
2019-03-11T11:35:52.080Z,6.56
2019-03-11T11:36:52.100Z,6.53
2019-03-11T11:37:52.112Z,6.50
2019-03-11T11:38:52.136Z,6.44
2019-03-11T11:39:52.159Z,6.47
2019-03-11T11:40:52.172Z,6.39
2019-03-11T11:41:52.194Z,6.41
2019-03-11T11:42:52.221Z,6.43
2019-03-11T11:43:52.243Z,6.41
2019-03-11T11:44:52.251Z,6.39
2019-03-11T11:45:52.276Z,6.25
2019-03-11T11:46:52.298Z,6.32
2019-03-11T11:47:52.308Z,6.29
2019-03-11T11:48:52.337Z,6.10
2019-03-11T11:49:52.351Z,6.12
2019-03-11T11:50:52.369Z,5.87
2019-03-11T11:51:52.395Z,5.84
2019-03-11T11:52:52.408Z,5.87
2019-03-11T11:53:52.431Z,5.81
2019-03-11T11:54:52.446Z,5.73
2019-03-11T11:55:57.740Z,5.73
2019-03-11T11:56:52.503Z,5.88
2019-03-11T11:57:52.504Z,5.84
2019-03-11T11:58:52.520Z,5.94
2019-03-11T11:59:54.352Z,5.94
2019-03-11T12:00:52.559Z,5.94
2019-03-11T12:02:02.939Z,5.90
2019-03-11T12:02:52.605Z,5.91
2019-03-11T12:03:52.616Z,5.87
2019-03-11T12:04:52.636Z,5.92
2019-03-11T12:05:52.666Z,5.97
2019-03-11T12:06:52.676Z,5.90
2019-03-11T12:07:52.697Z,5.90
2019-03-11T12:08:52.731Z,5.84
2019-03-11T12:09:52.732Z,5.90
2019-03-11T12:10:52.748Z,5.77
2019-03-11T12:11:52.773Z,5.72
2019-03-11T12:12:52.798Z,5.77
2019-03-11T12:13:52.803Z,5.67
2019-03-11T12:14:52.829Z,5.79
2019-03-11T12:15:52.845Z,5.74
2019-03-11T12:16:52.874Z,5.77
2019-03-11T12:17:52.885Z,5.91
2019-03-11T12:18:52.912Z,5.91
2019-03-11T12:19:52.922Z,5.87
2019-03-11T12:20:52.941Z,5.81
2019-03-11T12:21:52.959Z,5.88
2019-03-11T12:22:52.980Z,5.83
2019-03-11T12:23:53.002Z,5.95
2019-03-11T12:24:53.017Z,5.97
2019-03-11T12:25:53.032Z,5.97
2019-03-11T12:26:53.061Z,5.97
2019-03-11T12:27:54.587Z,5.91
2019-03-11T12:28:53.091Z,6.02
2019-03-11T12:29:53.117Z,5.95
2019-03-11T12:30:53.141Z,6.07
2019-03-11T12:31:53.152Z,5.91
2019-03-11T12:32:53.180Z,6.01
2019-03-11T12:33:53.194Z,6.01
2019-03-11T12:34:53.224Z,5.99
2019-03-11T12:35:53.235Z,5.98
2019-03-11T12:36:53.253Z,5.83
2019-03-11T12:37:53.269Z,5.84
2019-03-11T12:38:53.287Z,5.83
2019-03-11T12:39:53.307Z,5.95
2019-03-11T12:40:53.330Z,5.98
2019-03-11T12:41:53.347Z,5.95
2019-03-11T12:42:53.365Z,6.05
2019-03-11T12:43:53.383Z,6.07
2019-03-11T12:44:53.829Z,6.07
2019-03-11T12:45:53.426Z,6.07
2019-03-11T12:46:53.441Z,6.10
2019-03-11T12:47:53.466Z,6.16
2019-03-11T12:48:53.479Z,6.13
2019-03-11T12:49:53.496Z,6.13
2019-03-11T12:50:53.515Z,6.22
2019-03-11T12:51:53.531Z,6.19
2019-03-11T12:52:53.559Z,6.22
2019-03-11T12:53:53.577Z,6.20
2019-03-11T12:54:53.586Z,6.20
2019-03-11T12:55:53.616Z,6.25
2019-03-11T12:56:53.632Z,6.28
2019-03-11T12:57:53.650Z,6.31
2019-03-11T12:58:53.670Z,6.19
2019-03-11T12:59:53.690Z,6.16
2019-03-11T13:00:53.705Z,6.09
2019-03-11T13:01:53.726Z,6.06
2019-03-11T13:02:53.748Z,6.17
2019-03-11T13:03:53.762Z,6.32
2019-03-11T13:04:53.785Z,6.17
2019-03-11T13:05:53.798Z,6.34
2019-03-11T13:06:53.825Z,6.29
2019-03-11T13:07:53.852Z,6.32
2019-03-11T13:08:53.859Z,6.25
2019-03-11T13:09:53.881Z,6.28
2019-03-11T13:10:53.904Z,6.22
2019-03-11T13:11:53.912Z,6.35
2019-03-11T13:12:53.940Z,6.41
2019-03-11T13:13:53.955Z,6.39
2019-03-11T13:14:53.974Z,6.41
2019-03-11T13:15:53.992Z,6.41
2019-03-11T13:16:54.013Z,6.39
2019-03-11T13:17:54.035Z,6.41
2019-03-11T13:18:54.053Z,6.49